Time;durP1;ratioP1;P1;durP2;ratioP2;P2;SDS_P1;SDS_P2;PMS_P1;PMS_P2;Temp;Humidity;BMP_temperature;BMP_pressure;BME280_temperature;BME280_humidity;BME280_pressure;Samples;Min_cycle;Max_cycle;Signal;HPM_P1;HPM_P2
2022/03/11 00:00:51;;;;;;;;;;;;;;;;;;2136927;27;19923;-51
2022/03/11 00:01:53;;;;;;;;;;;;;;;;;;2135605;27;19930;-50
2022/03/11 00:03:11;;;;;;;;;;;;;;;;;;2136544;27;19931;-48
2022/03/11 00:04:12;;;;;;;;;;;;;;;;;;2135687;27;19923;-48
2022/03/11 00:05:13;;;;;;;;;;;;;;;;;;2136838;27;20026;-48
2022/03/11 00:06:14;;;;;;;;;;;;;;;;;;2135302;27;19974;-48
2022/03/11 00:07:15;;;;;;;;;;;;;;;;;;2135917;27;19992;-51
2022/03/11 00:08:16;;;;;;;;;;;;;;;;;;2134504;27;19942;-48
2022/03/11 00:09:18;;;;;;;;;;;;;;;;;;2134830;27;19962;-49
2022/03/11 00:10:19;;;;;;;;;;;;;;;;;;2135642;27;20074;-48
2022/03/11 00:11:20;;;;;;;;;;;;;;;;;;2136109;27;19931;-48
2022/03/11 00:12:21;;;;;;;;;;;;;;;;;;2135856;27;20008;-50
2022/03/11 00:13:23;;;;;;;;;;;;;;;;;;2137099;27;20443;-49
2022/03/11 00:14:24;;;;;;;;;;;;;;;;;;2134677;27;19923;-48
2022/03/11 00:15:26;;;;;;;;;;;;;;;;;;2134794;27;19923;-48
2022/03/11 00:16:27;;;;;;;;;;;;;;;;;;2131888;27;19966;-48
2022/03/11 00:17:28;;;;;;;;;;;;;;;;;;2131987;27;20014;-48
2022/03/11 00:18:30;;;;;;;;;;;;;;;;;;2131946;27;20372;-48
2022/03/11 00:19:31;;;;;;;;;;;;;;;;;;2132086;27;19923;-45
2022/03/11 00:20:32;;;;;;;;;;;;;;;;;;2136033;27;19934;-44
2022/03/11 00:21:34;;;;;;;;;;;;;;;;;;2134970;27;20450;-44
2022/03/11 00:22:35;;;;;;;;;;;;;;;;;;2135096;27;20443;-50
2022/03/11 00:23:36;;;;;;;;;;;;;;;;;;2134578;27;20418;-49
2022/03/11 00:24:38;;;;;;;;;;;;;;;;;;2136946;27;19966;-48
2022/03/11 00:25:39;;;;;;;;;;;;;;;;;;2134078;27;20023;-48
2022/03/11 00:26:40;;;;;;;;;;;;;;;;;;2136240;27;19979;-48
2022/03/11 00:27:40;;;;;;;;;;;;;;;;;;2136733;27;19926;-50
2022/03/11 00:28:41;;;;;;;;;;;;;;;;;;2136851;27;20112;-48
2022/03/11 00:29:43;;;;;;;;;;;;;;;;;;2135567;27;20017;-48
2022/03/11 00:30:44;;;;;;;;;;;;;;;;;;2134514;27;20125;-44
2022/03/11 00:31:45;;;;;;;;;;;;;;;;;;2138129;27;20009;-49
2022/03/11 00:32:48;;;;;;;;;;;;;;;;;;2140482;27;20272;-48
2022/03/11 00:33:49;;;;;;;;;;;;;;;;;;2140576;27;20364;-48
2022/03/11 00:34:50;;;;;;;;;;;;;;;;;;2140520;27;19962;-45
2022/03/11 00:35:51;;;;;;;;;;;;;;;;;;2140418;27;20496;-44
2022/03/11 00:36:52;;;;;;;;;;;;;;;;;;2134921;27;19968;-45
2022/03/11 00:37:53;;;;;;;;;;;;;;;;;;2131752;27;19930;-44
2022/03/11 00:38:54;;;;;;;;;;;;;;;;;;2137851;27;19966;-45
2022/03/11 00:39:55;;;;;;;;;;;;;;;;;;2140657;27;20009;-44
2022/03/11 00:40:56;;;;;;;;;;;;;;;;;;2140664;27;20019;-51
2022/03/11 00:41:58;;;;;;;;;;;;;;;;;;2140377;27;19927;-47
2022/03/11 00:42:59;;;;;;;;;;;;;;;;;;2140088;27;19929;-48
2022/03/11 00:44:00;;;;;;;;;;;;;;;;;;2139770;27;20001;-48
2022/03/11 00:45:01;;;;;;;;;;;;;;;;;;2140566;27;19923;-49
2022/03/11 00:46:02;;;;;;;;;;;;;;;;;;2139283;27;20013;-48
2022/03/11 00:47:04;;;;;;;;;;;;;;;;;;2135218;27;19967;-48
2022/03/11 00:48:05;;;;;;;;;;;;;;;;;;2135162;27;20325;-48
2022/03/11 00:49:06;;;;;;;;;;;;;;;;;;2133720;27;19927;-48
2022/03/11 00:50:07;;;;;;;;;;;;;;;;;;2133531;27;19992;-51
2022/03/11 00:51:08;;;;;;;;;;;;;;;;;;2131456;27;19923;-47
2022/03/11 00:52:10;;;;;;;;;;;;;;;;;;2138168;27;19923;-48
2022/03/11 00:53:11;;;;;;;;;;;;;;;;;;2133600;27;20067;-51
2022/03/11 00:54:13;;;;;;;;;;;;;;;;;;2131641;27;19929;-48
2022/03/11 00:55:14;;;;;;;;;;;;;;;;;;2131661;27;20060;-48
2022/03/11 00:56:16;;;;;;;;;;;;;;;;;;2131578;27;20023;-48
2022/03/11 00:57:17;;;;;;;;;;;;;;;;;;2131703;27;19970;-47
2022/03/11 00:58:18;;;;;;;;;;;;;;;;;;2131616;27;19923;-49
2022/03/11 00:59:20;;;;;;;;;;;;;;;;;;2131609;27;20014;-47
2022/03/11 01:00:21;;;;;;;;;;;;;;;;;;2131865;27;19944;-44
2022/03/11 01:01:22;;;;;;;;;;;;;;;;;;2132008;27;19923;-44
2022/03/11 01:02:24;;;;;;;;;;;;;;;;;;2132093;27;19923;-48
2022/03/11 01:03:25;;;;;;;;;;;;;;;;;;2132027;27;19923;-44
2022/03/11 01:04:26;;;;;;;;;;;;;;;;;;2131801;27;19923;-45
2022/03/11 01:05:27;;;;;;;;;;;;;;;;;;2131624;27;20243;-44
2022/03/11 01:06:28;;;;;;;;;;;;;;;;;;2131595;27;19927;-44
2022/03/11 01:07:29;;;;;;;;;;;;;;;;;;2131899;27;20344;-48
2022/03/11 01:08:31;;;;;;;;;;;;;;;;;;2131713;27;20203;-47
2022/03/11 01:09:32;;;;;;;;;;;;;;;;;;2131666;27;20014;-48
2022/03/11 01:10:33;;;;;;;;;;;;;;;;;;2131559;27;19923;-47
2022/03/11 01:11:34;;;;;;;;;;;;;;;;;;2131475;27;20005;-48
2022/03/11 01:12:37;;;;;;;;;;;;;;;;;;2131848;27;19927;-48
2022/03/11 01:13:38;;;;;;;;;;;;;;;;;;2131517;27;20010;-49
2022/03/11 01:14:40;;;;;;;;;;;;;;;;;;2131750;27;20071;-49
2022/03/11 01:15:41;;;;;;;;;;;;;;;;;;2131582;27;20002;-48
2022/03/11 01:16:42;;;;;;;;;;;;;;;;;;2131498;27;19958;-48
2022/03/11 01:17:43;;;;;;;;;;;;;;;;;;2131610;27;20372;-48
2022/03/11 01:18:45;;;;;;;;;;;;;;;;;;2131544;27;19958;-50
2022/03/11 01:19:46;;;;;;;;;;;;;;;;;;2131499;27;19924;-47
2022/03/11 01:20:47;;;;;;;;;;;;;;;;;;2131661;27;19926;-48
2022/03/11 01:21:48;;;;;;;;;;;;;;;;;;2131606;27;19970;-48
2022/03/11 01:22:49;;;;;;;;;;;;;;;;;;2131730;27;19970;-48
2022/03/11 01:23:50;;;;;;;;;;;;;;;;;;2131748;27;19935;-48
2022/03/11 01:24:51;;;;;;;;;;;;;;;;;;2131513;27;19970;-49
2022/03/11 01:25:52;;;;;;;;;;;;;;;;;;2131467;27;20006;-48
2022/03/11 01:26:53;;;;;;;;;;;;;;;;;;2131421;27;20015;-48
2022/03/11 01:27:54;;;;;;;;;;;;;;;;;;2131503;27;20429;-50
2022/03/11 01:28:56;;;;;;;;;;;;;;;;;;2131333;27;19923;-48
2022/03/11 01:29:57;;;;;;;;;;;;;;;;;;2131436;27;19931;-48
2022/03/11 01:30:58;;;;;;;;;;;;;;;;;;2131522;27;19931;-48
2022/03/11 01:31:59;;;;;;;;;;;;;;;;;;2138319;27;20005;-48
2022/03/11 01:33:00;;;;;;;;;;;;;;;;;;2140475;27;19926;-48
2022/03/11 01:34:01;;;;;;;;;;;;;;;;;;2140074;27;19983;-48
2022/03/11 01:35:03;;;;;;;;;;;;;;;;;;2140119;27;19923;-50
2022/03/11 01:36:04;;;;;;;;;;;;;;;;;;2140033;27;19930;-48
2022/03/11 01:37:05;;;;;;;;;;;;;;;;;;2140166;27;19923;-49
2022/03/11 01:38:06;;;;;;;;;;;;;;;;;;2140026;27;20009;-50
2022/03/11 01:39:07;;;;;;;;;;;;;;;;;;2140221;27;20260;-47
2022/03/11 01:40:08;;;;;;;;;;;;;;;;;;2140026;27;19958;-50
2022/03/11 01:41:09;;;;;;;;;;;;;;;;;;2140070;27;20017;-48
2022/03/11 01:42:10;;;;;;;;;;;;;;;;;;2140127;27;20348;-48
2022/03/11 01:43:12;;;;;;;;;;;;;;;;;;2140094;27;20021;-48
2022/03/11 01:44:13;;;;;;;;;;;;;;;;;;2134852;27;20030;-48
2022/03/11 01:45:14;;;;;;;;;;;;;;;;;;2131859;27;20320;-45
2022/03/11 01:46:15;;;;;;;;;;;;;;;;;;2131166;27;19923;-44
2022/03/11 01:47:16;;;;;;;;;;;;;;;;;;2131320;27;20022;-44
2022/03/11 01:48:17;;;;;;;;;;;;;;;;;;2136242;27;19954;-44
2022/03/11 01:49:19;;;;;;;;;;;;;;;;;;2140206;27;20449;-44
2022/03/11 01:50:19;;;;;;;;;;;;;;;;;;2140143;27;20046;-44
2022/03/11 01:51:21;;;;;;;;;;;;;;;;;;2134606;27;19927;-44
2022/03/11 01:52:22;;;;;;;;;;;;;;;;;;2131411;27;20013;-44
2022/03/11 01:53:23;;;;;;;;;;;;;;;;;;2131419;27;20006;-44
2022/03/11 01:54:24;;;;;;;;;;;;;;;;;;2131525;27;20018;-44
2022/03/11 01:55:25;;;;;;;;;;;;;;;;;;2131563;27;19966;-45
2022/03/11 01:56:26;;;;;;;;;;;;;;;;;;2131283;27;20014;-45
2022/03/11 01:57:27;;;;;;;;;;;;;;;;;;2131447;27;19923;-44
2022/03/11 01:58:28;;;;;;;;;;;;;;;;;;2131253;27;19969;-44
2022/03/11 01:59:29;;;;;;;;;;;;;;;;;;2132159;27;19923;-44
2022/03/11 02:00:30;;;;;;;;;;;;;;;;;;2133233;27;20025;-44
2022/03/11 02:01:32;;;;;;;;;;;;;;;;;;2133110;27;19923;-48
2022/03/11 02:02:33;;;;;;;;;;;;;;;;;;2132903;27;19923;-44
2022/03/11 02:03:35;;;;;;;;;;;;;;;;;;2133049;27;19968;-44
2022/03/11 02:04:36;;;;;;;;;;;;;;;;;;2132875;27;19987;-44
2022/03/11 02:05:37;;;;;;;;;;;;;;;;;;2132785;27;19985;-46
2022/03/11 02:06:38;;;;;;;;;;;;;;;;;;2132836;27;19933;-44
2022/03/11 02:07:39;;;;;;;;;;;;;;;;;;2133033;27;19930;-47
2022/03/11 02:08:40;;;;;;;;;;;;;;;;;;2132925;27;19927;-50
2022/03/11 02:09:41;;;;;;;;;;;;;;;;;;2132781;27;19975;-48
2022/03/11 02:10:42;;;;;;;;;;;;;;;;;;2132903;27;20047;-49
2022/03/11 02:11:44;;;;;;;;;;;;;;;;;;2132676;27;20355;-48
2022/03/11 02:12:45;;;;;;;;;;;;;;;;;;2132958;27;20005;-49
2022/03/11 02:13:46;;;;;;;;;;;;;;;;;;2132958;27;19962;-49
2022/03/11 02:14:47;;;;;;;;;;;;;;;;;;2132856;27;19932;-48
2022/03/11 02:15:48;;;;;;;;;;;;;;;;;;2132774;27;20407;-50
2022/03/11 02:16:49;;;;;;;;;;;;;;;;;;2132733;27;20376;-48
2022/03/11 02:17:50;;;;;;;;;;;;;;;;;;2132858;27;19954;-48
2022/03/11 02:18:51;;;;;;;;;;;;;;;;;;2132630;27;20013;-48
2022/03/11 02:19:53;;;;;;;;;;;;;;;;;;2132950;27;19929;-48
2022/03/11 02:20:54;;;;;;;;;;;;;;;;;;2132337;27;20363;-49
2022/03/11 02:21:55;;;;;;;;;;;;;;;;;;2132930;27;19923;-48
2022/03/11 02:22:56;;;;;;;;;;;;;;;;;;2132838;27;19972;-48
2022/03/11 02:23:57;;;;;;;;;;;;;;;;;;2132739;27;19984;-48
2022/03/11 02:24:58;;;;;;;;;;;;;;;;;;2132377;27;19927;-49
2022/03/11 02:26:00;;;;;;;;;;;;;;;;;;2133829;27;19950;-48
2022/03/11 02:27:01;;;;;;;;;;;;;;;;;;2132716;27;20010;-48
2022/03/11 02:28:02;;;;;;;;;;;;;;;;;;2132608;27;19930;-47
2022/03/11 02:29:03;;;;;;;;;;;;;;;;;;2132820;27;19923;-50
2022/03/11 02:30:04;;;;;;;;;;;;;;;;;;2132588;27;19977;-48
2022/03/11 02:31:05;;;;;;;;;;;;;;;;;;2132768;27;19973;-47
2022/03/11 02:32:07;;;;;;;;;;;;;;;;;;2140640;27;20306;-48
2022/03/11 02:33:08;;;;;;;;;;;;;;;;;;2141392;27;19923;-50
2022/03/11 02:34:10;;;;;;;;;;;;;;;;;;2141313;27;19930;-48
2022/03/11 02:35:11;;;;;;;;;;;;;;;;;;2141156;27;20017;-48
2022/03/11 02:36:12;;;;;;;;;;;;;;;;;;2141122;27;20029;-48
2022/03/11 02:37:13;;;;;;;;;;;;;;;;;;2141467;27;19962;-45
2022/03/11 02:38:14;;;;;;;;;;;;;;;;;;2141309;27;19922;-44
2022/03/11 02:39:15;;;;;;;;;;;;;;;;;;2141079;27;20043;-44
2022/03/11 02:40:16;;;;;;;;;;;;;;;;;;2137936;27;20325;-44
2022/03/11 02:41:17;;;;;;;;;;;;;;;;;;2132585;27;20018;-44
2022/03/11 02:42:21;;;;;;;;;;;;;;;;;;2134843;27;19927;-44
2022/03/11 02:43:22;;;;;;;;;;;;;;;;;;2131279;27;19923;-44
2022/03/11 02:44:24;;;;;;;;;;;;;;;;;;2131722;27;19969;-44
2022/03/11 02:45:26;;;;;;;;;;;;;;;;;;2132096;27;20349;-44
2022/03/11 02:46:27;;;;;;;;;;;;;;;;;;2131649;27;19978;-44
2022/03/11 02:47:28;;;;;;;;;;;;;;;;;;2136920;27;19972;-44
2022/03/11 02:48:30;;;;;;;;;;;;;;;;;;2138636;27;19996;-45
2022/03/11 02:49:31;;;;;;;;;;;;;;;;;;2134284;27;20018;-49
2022/03/11 02:50:32;;;;;;;;;;;;;;;;;;2134886;27;19937;-48
2022/03/11 02:51:33;;;;;;;;;;;;;;;;;;2135663;27;19923;-48
2022/03/11 02:52:34;;;;;;;;;;;;;;;;;;2136987;27;19947;-51
2022/03/11 02:53:40;;;;;;;;;;;;;;;;;;2136836;27;20001;-48
2022/03/11 02:54:42;;;;;;;;;;;;;;;;;;2135944;27;19988;-44
2022/03/11 02:55:42;;;;;;;;;;;;;;;;;;2138069;27;20002;-44
2022/03/11 02:56:44;;;;;;;;;;;;;;;;;;2134986;27;20021;-44
2022/03/11 02:57:45;;;;;;;;;;;;;;;;;;2137469;27;20367;-48
2022/03/11 02:58:46;;;;;;;;;;;;;;;;;;2135953;27;19923;-48
2022/03/11 02:59:47;;;;;;;;;;;;;;;;;;2141110;27;20027;-48
2022/03/11 03:00:48;;;;;;;;;;;;;;;;;;2135285;27;20010;-48
2022/03/11 03:01:49;;;;;;;;;;;;;;;;;;2135608;27;19945;-48
2022/03/11 03:02:50;;;;;;;;;;;;;;;;;;2134307;27;19931;-48
2022/03/11 03:03:51;;;;;;;;;;;;;;;;;;2136826;27;19926;-48
2022/03/11 03:04:53;;;;;;;;;;;;;;;;;;2136043;27;19998;-47
2022/03/11 03:05:54;;;;;;;;;;;;;;;;;;2136864;27;20022;-51
2022/03/11 03:06:55;;;;;;;;;;;;;;;;;;2134629;27;19942;-48
2022/03/11 03:07:56;;;;;;;;;;;;;;;;;;2134373;27;20028;-44
2022/03/11 03:08:57;;;;;;;;;;;;;;;;;;2135669;27;20356;-44
2022/03/11 03:09:58;;;;;;;;;;;;;;;;;;2133855;27;20013;-45
2022/03/11 03:10:59;;;;;;;;;;;;;;;;;;2133815;27;19998;-45
2022/03/11 03:12:01;;;;;;;;;;;;;;;;;;2136503;27;19973;-44
2022/03/11 03:13:02;;;;;;;;;;;;;;;;;;2135691;27;19922;-44
2022/03/11 03:14:04;;;;;;;;;;;;;;;;;;2135893;27;20010;-44
2022/03/11 03:15:05;;;;;;;;;;;;;;;;;;2136261;27;19930;-48
2022/03/11 03:16:06;;;;;;;;;;;;;;;;;;2136915;27;19958;-49
2022/03/11 03:17:07;;;;;;;;;;;;;;;;;;2135838;27;19923;-48
2022/03/11 03:18:09;;;;;;;;;;;;;;;;;;2132666;27;20022;-48
2022/03/11 03:19:10;;;;;;;;;;;;;;;;;;2136728;27;20073;-48
2022/03/11 03:20:11;;;;;;;;;;;;;;;;;;2134504;27;20014;-48
2022/03/11 03:21:12;;;;;;;;;;;;;;;;;;2135291;27;19924;-48
2022/03/11 03:22:13;;;;;;;;;;;;;;;;;;2136523;27;20012;-47
2022/03/11 03:23:14;;;;;;;;;;;;;;;;;;2134814;27;20395;-48
2022/03/11 03:24:16;;;;;;;;;;;;;;;;;;2136565;27;19931;-47
2022/03/11 03:25:17;;;;;;;;;;;;;;;;;;2137562;27;19997;-48
2022/03/11 03:26:19;;;;;;;;;;;;;;;;;;2139825;27;20015;-48
2022/03/11 03:27:20;;;;;;;;;;;;;;;;;;2131501;27;20501;-48
2022/03/11 03:28:22;;;;;;;;;;;;;;;;;;2134865;27;20002;-48
2022/03/11 03:29:23;;;;;;;;;;;;;;;;;;2137675;27;19923;-47
2022/03/11 03:30:24;;;;;;;;;;;;;;;;;;2137027;27;19937;-49
2022/03/11 03:31:25;;;;;;;;;;;;;;;;;;2136049;27;20009;-48
2022/03/11 03:32:26;;;;;;;;;;;;;;;;;;2136241;27;19922;-49
2022/03/11 03:33:27;;;;;;;;;;;;;;;;;;2137068;27;19926;-47
2022/03/11 03:34:29;;;;;;;;;;;;;;;;;;2136014;27;19965;-48
2022/03/11 03:35:30;;;;;;;;;;;;;;;;;;2134771;27;20006;-48
2022/03/11 03:36:31;;;;;;;;;;;;;;;;;;2136811;27;19977;-47
2022/03/11 03:37:34;;;;;;;;;;;;;;;;;;2135562;27;19974;-48
2022/03/11 03:38:35;;;;;;;;;;;;;;;;;;2140347;27;20355;-47
2022/03/11 03:39:36;;;;;;;;;;;;;;;;;;2133030;27;19926;-44
2022/03/11 03:40:37;;;;;;;;;;;;;;;;;;2132102;27;20030;-44
2022/03/11 03:41:39;;;;;;;;;;;;;;;;;;2133804;27;19922;-44
2022/03/11 03:42:40;;;;;;;;;;;;;;;;;;2132173;27;20009;-44
2022/03/11 03:43:41;;;;;;;;;;;;;;;;;;2131990;27;20056;-44
2022/03/11 03:44:42;;;;;;;;;;;;;;;;;;2132421;27;19938;-44
2022/03/11 03:45:43;;;;;;;;;;;;;;;;;;2132602;27;20036;-44
2022/03/11 03:46:45;;;;;;;;;;;;;;;;;;2131940;27;20055;-45
2022/03/11 03:47:46;;;;;;;;;;;;;;;;;;2135212;27;19957;-44
2022/03/11 03:48:47;;;;;;;;;;;;;;;;;;2132175;27;19981;-44
2022/03/11 03:49:48;;;;;;;;;;;;;;;;;;2132172;27;20313;-44
2022/03/11 03:50:49;;;;;;;;;;;;;;;;;;2131951;27;19958;-44
2022/03/11 03:51:50;;;;;;;;;;;;;;;;;;2136283;27;20067;-47
2022/03/11 03:52:51;;;;;;;;;;;;;;;;;;2136684;27;19967;-48
2022/03/11 03:53:52;;;;;;;;;;;;;;;;;;2140092;27;20018;-44
2022/03/11 03:54:54;;;;;;;;;;;;;;;;;;2132234;27;20091;-45
2022/03/11 03:55:55;;;;;;;;;;;;;;;;;;2132145;27;19923;-44
2022/03/11 03:56:56;;;;;;;;;;;;;;;;;;2132427;27;20375;-45
2022/03/11 03:57:57;;;;;;;;;;;;;;;;;;2131897;27;20009;-44
2022/03/11 03:59:00;;;;;;;;;;;;;;;;;;2132212;27;19931;-44
2022/03/11 04:00:02;;;;;;;;;;;;;;;;;;2132088;27;20375;-43
2022/03/11 04:01:03;;;;;;;;;;;;;;;;;;2132428;27;19975;-44
2022/03/11 04:02:04;;;;;;;;;;;;;;;;;;2132975;27;20387;-44
2022/03/11 04:03:05;;;;;;;;;;;;;;;;;;2132070;27;19971;-43
2022/03/11 04:04:06;;;;;;;;;;;;;;;;;;2132519;27;20066;-47
2022/03/11 04:05:08;;;;;;;;;;;;;;;;;;2132079;27;19936;-47
2022/03/11 04:06:09;;;;;;;;;;;;;;;;;;2131953;27;20395;-48
2022/03/11 04:07:10;;;;;;;;;;;;;;;;;;2132400;27;20025;-49
2022/03/11 04:08:11;;;;;;;;;;;;;;;;;;2131903;27;20032;-48
2022/03/11 04:09:12;;;;;;;;;;;;;;;;;;2134622;27;19923;-47
2022/03/11 04:10:13;;;;;;;;;;;;;;;;;;2140770;27;20276;-49
2022/03/11 04:11:14;;;;;;;;;;;;;;;;;;2140818;27;19939;-44
2022/03/11 04:12:15;;;;;;;;;;;;;;;;;;2137386;27;19970;-44
2022/03/11 04:13:16;;;;;;;;;;;;;;;;;;2136139;27;20401;-44
2022/03/11 04:14:18;;;;;;;;;;;;;;;;;;2132661;27;20005;-44
2022/03/11 04:15:19;;;;;;;;;;;;;;;;;;2132058;27;20429;-48
2022/03/11 04:16:20;;;;;;;;;;;;;;;;;;2131095;27;19973;-49
2022/03/11 04:17:21;;;;;;;;;;;;;;;;;;2131883;27;19936;-48
2022/03/11 04:18:22;;;;;;;;;;;;;;;;;;2131835;27;20010;-47
2022/03/11 04:19:23;;;;;;;;;;;;;;;;;;2131447;27;19970;-44
2022/03/11 04:20:25;;;;;;;;;;;;;;;;;;2131762;27;19968;-44
2022/03/11 04:21:26;;;;;;;;;;;;;;;;;;2131513;27;19985;-44
2022/03/11 04:22:27;;;;;;;;;;;;;;;;;;2130633;27;19941;-44
2022/03/11 04:23:28;;;;;;;;;;;;;;;;;;2131685;27;19948;-44
2022/03/11 04:24:29;;;;;;;;;;;;;;;;;;2131691;27;19944;-44
2022/03/11 04:25:30;;;;;;;;;;;;;;;;;;2131883;27;19984;-48
2022/03/11 04:26:32;;;;;;;;;;;;;;;;;;2131957;27;19923;-48
2022/03/11 04:27:34;;;;;;;;;;;;;;;;;;2131749;27;20488;-44
2022/03/11 04:28:37;;;;;;;;;;;;;;;;;;2131768;27;19966;-45
2022/03/11 04:29:38;;;;;;;;;;;;;;;;;;2132254;27;19978;-47
2022/03/11 04:30:39;;;;;;;;;;;;;;;;;;2131765;27;19978;-48
2022/03/11 04:31:40;;;;;;;;;;;;;;;;;;2131719;27;20186;-48
2022/03/11 04:32:41;;;;;;;;;;;;;;;;;;2131954;27;19927;-49
2022/03/11 04:33:42;;;;;;;;;;;;;;;;;;2132030;27;19923;-45
2022/03/11 04:34:43;;;;;;;;;;;;;;;;;;2131919;27;20041;-45
2022/03/11 04:35:44;;;;;;;;;;;;;;;;;;2131035;27;19923;-44
2022/03/11 04:36:46;;;;;;;;;;;;;;;;;;2132068;27;20104;-45
2022/03/11 04:37:47;;;;;;;;;;;;;;;;;;2131929;27;19961;-44
2022/03/11 04:38:48;;;;;;;;;;;;;;;;;;2131650;27;20442;-44
2022/03/11 04:39:49;;;;;;;;;;;;;;;;;;2132185;27;19959;-45
2022/03/11 04:40:50;;;;;;;;;;;;;;;;;;2131750;27;20276;-44
2022/03/11 04:41:53;;;;;;;;;;;;;;;;;;2131709;27;19934;-44
2022/03/11 04:42:53;;;;;;;;;;;;;;;;;;2131777;27;20004;-44
2022/03/11 04:43:55;;;;;;;;;;;;;;;;;;2131512;27;20326;-44
2022/03/11 04:44:56;;;;;;;;;;;;;;;;;;2131959;27;19994;-44
2022/03/11 04:45:57;;;;;;;;;;;;;;;;;;2131603;27;19949;-45
2022/03/11 04:46:58;;;;;;;;;;;;;;;;;;2131716;27;19941;-46
2022/03/11 04:47:59;;;;;;;;;;;;;;;;;;2131705;27;19952;-49
2022/03/11 04:49:01;;;;;;;;;;;;;;;;;;2131962;27;19927;-48
2022/03/11 04:50:02;;;;;;;;;;;;;;;;;;2131780;27;19923;-48
2022/03/11 04:51:03;;;;;;;;;;;;;;;;;;2131395;27;19984;-48
2022/03/11 04:52:06;;;;;;;;;;;;;;;;;;2132079;27;20060;-48
2022/03/11 04:53:07;;;;;;;;;;;;;;;;;;2131575;27;20383;-48
2022/03/11 04:54:08;;;;;;;;;;;;;;;;;;2131595;27;20022;-48
2022/03/11 04:55:10;;;;;;;;;;;;;;;;;;2131851;27;19927;-48
2022/03/11 04:56:11;;;;;;;;;;;;;;;;;;2131816;27;19976;-48
2022/03/11 04:57:12;;;;;;;;;;;;;;;;;;2131982;27;19966;-48
2022/03/11 04:58:13;;;;;;;;;;;;;;;;;;2131678;27;19980;-50
2022/03/11 04:59:14;;;;;;;;;;;;;;;;;;2132112;27;20014;-44
2022/03/11 05:00:15;;;;;;;;;;;;;;;;;;2131637;27;20413;-45
2022/03/11 05:01:17;;;;;;;;;;;;;;;;;;2131822;27;20291;-44
2022/03/11 05:02:18;;;;;;;;;;;;;;;;;;2131715;27;20314;-44
2022/03/11 05:03:19;;;;;;;;;;;;;;;;;;2131675;27;19958;-45
2022/03/11 05:04:20;;;;;;;;;;;;;;;;;;2131540;27;20186;-44
2022/03/11 05:05:21;;;;;;;;;;;;;;;;;;2134936;27;19934;-44
2022/03/11 05:06:22;;;;;;;;;;;;;;;;;;2131675;27;20318;-44
2022/03/11 05:07:24;;;;;;;;;;;;;;;;;;2138605;27;20013;-44
2022/03/11 05:08:25;;;;;;;;;;;;;;;;;;2138524;27;20420;-45
2022/03/11 05:09:26;;;;;;;;;;;;;;;;;;2140236;27;20292;-44
2022/03/11 05:10:27;;;;;;;;;;;;;;;;;;2139758;27;20005;-44
2022/03/11 05:11:28;;;;;;;;;;;;;;;;;;2131711;27;19971;-51
2022/03/11 05:12:30;;;;;;;;;;;;;;;;;;2131941;27;20015;-45
2022/03/11 05:13:31;;;;;;;;;;;;;;;;;;2133527;27;20279;-44
2022/03/11 05:14:32;;;;;;;;;;;;;;;;;;2140346;27;20006;-47
2022/03/11 05:15:37;;;;;;;;;;;;;;;;;;2135019;27;19923;-48
2022/03/11 05:16:39;;;;;;;;;;;;;;;;;;2132022;27;19946;-48
2022/03/11 05:17:40;;;;;;;;;;;;;;;;;;2131774;27;20602;-50
2022/03/11 05:18:41;;;;;;;;;;;;;;;;;;2131443;27;20013;-50
2022/03/11 05:19:43;;;;;;;;;;;;;;;;;;2131657;27;19988;-48
2022/03/11 05:20:44;;;;;;;;;;;;;;;;;;2131561;27;20057;-48
2022/03/11 05:21:45;;;;;;;;;;;;;;;;;;2131674;27;19990;-47
2022/03/11 05:22:46;;;;;;;;;;;;;;;;;;2133154;27;19998;-48
2022/03/11 05:23:48;;;;;;;;;;;;;;;;;;2140329;27;19923;-49
2022/03/11 05:24:49;;;;;;;;;;;;;;;;;;2140473;27;20351;-44
2022/03/11 05:25:50;;;;;;;;;;;;;;;;;;2140143;27;19923;-44
2022/03/11 05:26:51;;;;;;;;;;;;;;;;;;2140257;27;20022;-45
2022/03/11 05:27:53;;;;;;;;;;;;;;;;;;2140368;27;20398;-44
2022/03/11 05:28:55;;;;;;;;;;;;;;;;;;2138221;27;20409;-44
2022/03/11 05:29:56;;;;;;;;;;;;;;;;;;2131586;27;20007;-45
2022/03/11 05:30:57;;;;;;;;;;;;;;;;;;2131599;27;19924;-44
2022/03/11 05:31:58;;;;;;;;;;;;;;;;;;2132362;27;20407;-44
2022/03/11 05:32:59;;;;;;;;;;;;;;;;;;2131695;27;20358;-45
2022/03/11 05:34:00;;;;;;;;;;;;;;;;;;2133197;27;19927;-44
2022/03/11 05:35:01;;;;;;;;;;;;;;;;;;2141074;27;19967;-44
2022/03/11 05:36:03;;;;;;;;;;;;;;;;;;2142341;27;19975;-48
2022/03/11 05:37:04;;;;;;;;;;;;;;;;;;2136755;27;20059;-48
2022/03/11 05:38:05;;;;;;;;;;;;;;;;;;2135684;27;19923;-48
2022/03/11 05:39:07;;;;;;;;;;;;;;;;;;2135289;27;20009;-48
2022/03/11 05:40:09;;;;;;;;;;;;;;;;;;2141628;27;19929;-44
2022/03/11 05:41:10;;;;;;;;;;;;;;;;;;2135983;27;20018;-45
2022/03/11 05:42:11;;;;;;;;;;;;;;;;;;2135934;27;19927;-44
2022/03/11 05:43:13;;;;;;;;;;;;;;;;;;2140392;27;19923;-44
2022/03/11 05:44:17;;;;;;;;;;;;;;;;;;2139060;27;19922;-47
2022/03/11 05:45:18;;;;;;;;;;;;;;;;;;2136031;27;19962;-47
2022/03/11 05:46:19;;;;;;;;;;;;;;;;;;2135743;27;19969;-44
2022/03/11 05:47:20;;;;;;;;;;;;;;;;;;2141771;27;19960;-44
2022/03/11 05:48:21;;;;;;;;;;;;;;;;;;2137387;27;20375;-45
2022/03/11 05:49:22;;;;;;;;;;;;;;;;;;2136623;27;19955;-44
2022/03/11 05:50:24;;;;;;;;;;;;;;;;;;2134978;27;19934;-44
2022/03/11 05:51:25;;;;;;;;;;;;;;;;;;2135237;27;20342;-44
2022/03/11 05:52:26;;;;;;;;;;;;;;;;;;2136192;27;19930;-44
2022/03/11 05:53:27;;;;;;;;;;;;;;;;;;2135980;27;20095;-48
2022/03/11 05:54:28;;;;;;;;;;;;;;;;;;2136382;27;20586;-48
2022/03/11 05:55:29;;;;;;;;;;;;;;;;;;2136083;27;19983;-44
2022/03/11 05:56:30;;;;;;;;;;;;;;;;;;2134749;27;19935;-44
2022/03/11 05:57:31;;;;;;;;;;;;;;;;;;2136172;27;19970;-44
2022/03/11 05:58:32;;;;;;;;;;;;;;;;;;2134990;27;20013;-44
2022/03/11 05:59:34;;;;;;;;;;;;;;;;;;2137555;27;20054;-44
2022/03/11 06:00:35;;;;;;;;;;;;;;;;;;2134627;27;20001;-49
2022/03/11 06:01:36;;;;;;;;;;;;;;;;;;2132493;27;20291;-48
2022/03/11 06:02:38;;;;;;;;;;;;;;;;;;2133176;27;20013;-44
2022/03/11 06:03:39;;;;;;;;;;;;;;;;;;2132984;27;19931;-48
2022/03/11 06:04:41;;;;;;;;;;;;;;;;;;2132805;27;19975;-48
2022/03/11 06:05:42;;;;;;;;;;;;;;;;;;2132997;27;19954;-48
2022/03/11 06:06:43;;;;;;;;;;;;;;;;;;2132917;27;19923;-44
2022/03/11 06:07:44;;;;;;;;;;;;;;;;;;2132841;27;19923;-44
2022/03/11 06:08:45;;;;;;;;;;;;;;;;;;2133182;27;19923;-44
2022/03/11 06:09:50;;;;;;;;;;;;;;;;;;2132740;27;19923;-44
2022/03/11 06:10:51;;;;;;;;;;;;;;;;;;2133390;27;20014;-45
2022/03/11 06:11:53;;;;;;;;;;;;;;;;;;2133362;27;20009;-44
2022/03/11 06:12:54;;;;;;;;;;;;;;;;;;2141540;27;19970;-48
2022/03/11 06:13:55;;;;;;;;;;;;;;;;;;2141417;27;20352;-48
2022/03/11 06:14:57;;;;;;;;;;;;;;;;;;2141369;27;19926;-49
2022/03/11 06:15:58;;;;;;;;;;;;;;;;;;2141206;27;20006;-49
2022/03/11 06:16:59;;;;;;;;;;;;;;;;;;2141463;27;19926;-47
2022/03/11 06:18:01;;;;;;;;;;;;;;;;;;2141659;27;19927;-48
2022/03/11 06:19:02;;;;;;;;;;;;;;;;;;2141709;27;19922;-44
2022/03/11 06:20:04;;;;;;;;;;;;;;;;;;2141705;27;20466;-45
2022/03/11 06:21:05;;;;;;;;;;;;;;;;;;2141580;27;20005;-44
2022/03/11 06:22:06;;;;;;;;;;;;;;;;;;2141196;27;19923;-44
2022/03/11 06:23:07;;;;;;;;;;;;;;;;;;2137248;27;20256;-48
2022/03/11 06:24:08;;;;;;;;;;;;;;;;;;2137178;27;19930;-44
2022/03/11 06:25:09;;;;;;;;;;;;;;;;;;2133698;27;19923;-46
2022/03/11 06:26:10;;;;;;;;;;;;;;;;;;2134919;27;20383;-45
2022/03/11 06:27:11;;;;;;;;;;;;;;;;;;2133996;27;20067;-45
2022/03/11 06:28:13;;;;;;;;;;;;;;;;;;2135455;27;20533;-46
2022/03/11 06:29:14;;;;;;;;;;;;;;;;;;2135702;27;20021;-45
2022/03/11 06:30:15;;;;;;;;;;;;;;;;;;2134113;27;19931;-45
2022/03/11 06:31:17;;;;;;;;;;;;;;;;;;2135017;27;19930;-48
2022/03/11 06:32:18;;;;;;;;;;;;;;;;;;2126304;27;20013;-48
2022/03/11 06:33:20;;;;;;;;;;;;;;;;;;2130120;27;20459;-48
2022/03/11 06:34:22;;;;;;;;;;;;;;;;;;2132375;27;20018;-45
2022/03/11 06:35:23;;;;;;;;;;;;;;;;;;2134826;27;20036;-44
2022/03/11 06:36:24;;;;;;;;;;;;;;;;;;2134221;27;20274;-49
2022/03/11 06:37:25;;;;;;;;;;;;;;;;;;2135602;27;19930;-48
2022/03/11 06:38:27;;;;;;;;;;;;;;;;;;2135665;27;19923;-49
2022/03/11 06:39:27;;;;;;;;;;;;;;;;;;2136817;27;20014;-48
2022/03/11 06:40:29;;;;;;;;;;;;;;;;;;2138808;27;19931;-48
2022/03/11 06:41:30;;;;;;;;;;;;;;;;;;2132779;27;20053;-45
2022/03/11 06:42:32;;;;;;;;;;;;;;;;;;2132571;27;19923;-45
2022/03/11 06:43:34;;;;;;;;;;;;;;;;;;2132769;27;19958;-45
2022/03/11 06:44:35;;;;;;;;;;;;;;;;;;2132322;27;20002;-46
2022/03/11 06:45:36;;;;;;;;;;;;;;;;;;2133976;27;20018;-45
2022/03/11 06:46:37;;;;;;;;;;;;;;;;;;2141272;27;20025;-45
2022/03/11 06:47:38;;;;;;;;;;;;;;;;;;2140978;27;19924;-45
2022/03/11 06:48:39;;;;;;;;;;;;;;;;;;2133448;27;20018;-45
2022/03/11 06:49:40;;;;;;;;;;;;;;;;;;2133950;27;19923;-44
2022/03/11 06:50:42;;;;;;;;;;;;;;;;;;2135312;27;20007;-48
2022/03/11 06:51:43;;;;;;;;;;;;;;;;;;2133666;27;19930;-48
2022/03/11 06:52:44;;;;;;;;;;;;;;;;;;2132413;27;20313;-50
2022/03/11 06:53:45;;;;;;;;;;;;;;;;;;2132444;27;20006;-48
2022/03/11 06:54:46;;;;;;;;;;;;;;;;;;2134240;27;19987;-45
2022/03/11 06:55:47;;;;;;;;;;;;;;;;;;2141035;27;20299;-45
2022/03/11 06:56:48;;;;;;;;;;;;;;;;;;2141145;27;19929;-45
2022/03/11 06:57:49;;;;;;;;;;;;;;;;;;2135982;27;19930;-45
2022/03/11 06:58:51;;;;;;;;;;;;;;;;;;2132653;27;19975;-45